sensor_id;sensor_type;location;lat;lon;timestamp;temperature;humidity
35381;DHT22;21486;51.916;8.378;2023-08-24T00:01:03;17.60;99.90
35381;DHT22;21486;51.916;8.378;2023-08-24T00:03:28;17.40;99.90
35381;DHT22;21486;51.916;8.378;2023-08-24T00:05:54;17.40;99.90
35381;DHT22;21486;51.916;8.378;2023-08-24T00:08:20;17.40;99.90
35381;DHT22;21486;51.916;8.378;2023-08-24T00:10:45;17.40;99.90
35381;DHT22;21486;51.916;8.378;2023-08-24T00:13:12;17.30;99.90
35381;DHT22;21486;51.916;8.378;2023-08-24T00:15:37;17.40;99.90
35381;DHT22;21486;51.916;8.378;2023-08-24T00:18:04;17.30;99.90
35381;DHT22;21486;51.916;8.378;2023-08-24T00:20:30;17.30;99.90
35381;DHT22;21486;51.916;8.378;2023-08-24T00:22:58;17.30;99.90
35381;DHT22;21486;51.916;8.378;2023-08-24T00:25:23;17.30;99.90
35381;DHT22;21486;51.916;8.378;2023-08-24T00:27:49;17.20;99.90
35381;DHT22;21486;51.916;8.378;2023-08-24T00:33:02;17.30;99.90
35381;DHT22;21486;51.916;8.378;2023-08-24T00:35:28;17.20;99.90
35381;DHT22;21486;51.916;8.378;2023-08-24T00:37:53;17.20;99.90
35381;DHT22;21486;51.916;8.378;2023-08-24T00:40:19;17.20;99.90
35381;DHT22;21486;51.916;8.378;2023-08-24T00:42:45;17.20;99.90
35381;DHT22;21486;51.916;8.378;2023-08-24T00:45:12;17.20;99.90
35381;DHT22;21486;51.916;8.378;2023-08-24T00:47:44;17.20;99.90
35381;DHT22;21486;51.916;8.378;2023-08-24T00:50:10;17.20;99.90
35381;DHT22;21486;51.916;8.378;2023-08-24T00:52:38;17.10;99.90
35381;DHT22;21486;51.916;8.378;2023-08-24T00:55:05;17.20;99.90
35381;DHT22;21486;51.916;8.378;2023-08-24T00:57:32;17.20;99.90
35381;DHT22;21486;51.916;8.378;2023-08-24T01:00:03;17.20;99.90
35381;DHT22;21486;51.916;8.378;2023-08-24T01:02:31;17.10;99.90
35381;DHT22;21486;51.916;8.378;2023-08-24T01:04:57;17.20;99.90
35381;DHT22;21486;51.916;8.378;2023-08-24T01:07:23;17.10;99.90
35381;DHT22;21486;51.916;8.378;2023-08-24T01:09:49;17.10;99.90
35381;DHT22;21486;51.916;8.378;2023-08-24T01:12:26;17.20;99.90
35381;DHT22;21486;51.916;8.378;2023-08-24T01:15:15;17.10;99.90
35381;DHT22;21486;51.916;8.378;2023-08-24T01:17:43;17.10;99.90
35381;DHT22;21486;51.916;8.378;2023-08-24T01:20:10;17.00;99.90
35381;DHT22;21486;51.916;8.378;2023-08-24T01:23:03;17.00;99.90
35381;DHT22;21486;51.916;8.378;2023-08-24T01:25:38;17.00;99.90
35381;DHT22;21486;51.916;8.378;2023-08-24T01:28:06;17.00;99.90
35381;DHT22;21486;51.916;8.378;2023-08-24T01:30:33;17.00;99.90
35381;DHT22;21486;51.916;8.378;2023-08-24T01:33:02;16.90;99.90
35381;DHT22;21486;51.916;8.378;2023-08-24T01:35:28;16.90;99.90
35381;DHT22;21486;51.916;8.378;2023-08-24T01:37:54;16.80;99.90
35381;DHT22;21486;51.916;8.378;2023-08-24T01:40:48;16.80;99.90
35381;DHT22;21486;51.916;8.378;2023-08-24T01:43:18;16.80;99.90
35381;DHT22;21486;51.916;8.378;2023-08-24T01:45:46;16.80;99.90
35381;DHT22;21486;51.916;8.378;2023-08-24T01:48:12;16.80;99.90
35381;DHT22;21486;51.916;8.378;2023-08-24T01:50:39;16.80;99.90
35381;DHT22;21486;51.916;8.378;2023-08-24T01:53:04;16.80;99.90
35381;DHT22;21486;51.916;8.378;2023-08-24T01:55:30;16.80;99.90
35381;DHT22;21486;51.916;8.378;2023-08-24T01:57:56;16.80;99.90
35381;DHT22;21486;51.916;8.378;2023-08-24T02:00:22;16.90;99.90
35381;DHT22;21486;51.916;8.378;2023-08-24T02:02:48;16.80;99.90
35381;DHT22;21486;51.916;8.378;2023-08-24T02:05:14;16.80;99.90
35381;DHT22;21486;51.916;8.378;2023-08-24T02:07:39;16.70;99.90
35381;DHT22;21486;51.916;8.378;2023-08-24T02:10:08;16.70;99.90
35381;DHT22;21486;51.916;8.378;2023-08-24T02:12:33;16.70;99.90
35381;DHT22;21486;51.916;8.378;2023-08-24T02:14:59;16.70;99.90
35381;DHT22;21486;51.916;8.378;2023-08-24T02:17:26;16.60;99.90
35381;DHT22;21486;51.916;8.378;2023-08-24T02:19:51;16.60;99.90
35381;DHT22;21486;51.916;8.378;2023-08-24T02:22:17;16.60;99.90
35381;DHT22;21486;51.916;8.378;2023-08-24T02:24:43;16.50;99.90
35381;DHT22;21486;51.916;8.378;2023-08-24T02:27:09;16.60;99.90
35381;DHT22;21486;51.916;8.378;2023-08-24T02:29:34;16.50;99.90
35381;DHT22;21486;51.916;8.378;2023-08-24T02:32:00;16.50;99.90
35381;DHT22;21486;51.916;8.378;2023-08-24T02:34:25;16.50;99.90
35381;DHT22;21486;51.916;8.378;2023-08-24T02:36:51;16.40;99.90
35381;DHT22;21486;51.916;8.378;2023-08-24T02:39:17;16.40;99.90
35381;DHT22;21486;51.916;8.378;2023-08-24T02:41:42;16.30;99.90
35381;DHT22;21486;51.916;8.378;2023-08-24T02:44:08;16.40;99.90
35381;DHT22;21486;51.916;8.378;2023-08-24T02:46:33;16.30;99.90
35381;DHT22;21486;51.916;8.378;2023-08-24T02:48:59;16.30;99.90
35381;DHT22;21486;51.916;8.378;2023-08-24T02:51:24;16.30;99.90
35381;DHT22;21486;51.916;8.378;2023-08-24T02:53:50;16.30;99.90
35381;DHT22;21486;51.916;8.378;2023-08-24T02:56:16;16.30;99.90
35381;DHT22;21486;51.916;8.378;2023-08-24T02:58:41;16.30;99.90
35381;DHT22;21486;51.916;8.378;2023-08-24T03:01:07;16.30;99.90
35381;DHT22;21486;51.916;8.378;2023-08-24T03:03:36;16.20;99.90
35381;DHT22;21486;51.916;8.378;2023-08-24T03:06:04;16.20;99.90
35381;DHT22;21486;51.916;8.378;2023-08-24T03:08:32;16.20;99.90
35381;DHT22;21486;51.916;8.378;2023-08-24T03:10:58;16.20;99.90
35381;DHT22;21486;51.916;8.378;2023-08-24T03:13:24;16.20;99.90
35381;DHT22;21486;51.916;8.378;2023-08-24T03:15:50;16.20;99.90
35381;DHT22;21486;51.916;8.378;2023-08-24T03:18:17;16.30;99.90
35381;DHT22;21486;51.916;8.378;2023-08-24T03:20:44;16.20;99.90
35381;DHT22;21486;51.916;8.378;2023-08-24T03:23:10;16.20;99.90
35381;DHT22;21486;51.916;8.378;2023-08-24T03:25:37;16.30;99.90
35381;DHT22;21486;51.916;8.378;2023-08-24T03:28:03;16.20;99.90
35381;DHT22;21486;51.916;8.378;2023-08-24T03:30:29;16.20;99.90
35381;DHT22;21486;51.916;8.378;2023-08-24T03:32:55;16.20;99.90
35381;DHT22;21486;51.916;8.378;2023-08-24T03:35:20;16.10;99.90
35381;DHT22;21486;51.916;8.378;2023-08-24T03:37:46;16.10;99.90
35381;DHT22;21486;51.916;8.378;2023-08-24T03:40:12;16.10;99.90
35381;DHT22;21486;51.916;8.378;2023-08-24T03:42:37;16.10;99.90
35381;DHT22;21486;51.916;8.378;2023-08-24T03:45:03;16.10;99.90
35381;DHT22;21486;51.916;8.378;2023-08-24T03:47:29;16.10;99.90
35381;DHT22;21486;51.916;8.378;2023-08-24T03:49:55;16.20;99.90
35381;DHT22;21486;51.916;8.378;2023-08-24T03:52:20;16.10;99.90
35381;DHT22;21486;51.916;8.378;2023-08-24T03:54:46;16.00;99.90
35381;DHT22;21486;51.916;8.378;2023-08-24T03:57:12;16.10;99.90
35381;DHT22;21486;51.916;8.378;2023-08-24T03:59:37;16.10;99.90
35381;DHT22;21486;51.916;8.378;2023-08-24T04:02:03;16.10;99.90
35381;DHT22;21486;51.916;8.378;2023-08-24T04:04:30;16.10;99.90
35381;DHT22;21486;51.916;8.378;2023-08-24T04:06:55;16.10;99.90
35381;DHT22;21486;51.916;8.378;2023-08-24T04:09:21;16.20;99.90
35381;DHT22;21486;51.916;8.378;2023-08-24T04:11:47;16.20;99.90
35381;DHT22;21486;51.916;8.378;2023-08-24T04:14:12;16.20;99.90
35381;DHT22;21486;51.916;8.378;2023-08-24T04:16:39;16.30;99.90
35381;DHT22;21486;51.916;8.378;2023-08-24T04:19:04;16.30;99.90
35381;DHT22;21486;51.916;8.378;2023-08-24T04:21:30;16.40;99.90
35381;DHT22;21486;51.916;8.378;2023-08-24T04:23:55;16.50;99.90
35381;DHT22;21486;51.916;8.378;2023-08-24T04:26:21;16.40;99.90
35381;DHT22;21486;51.916;8.378;2023-08-24T04:28:46;16.40;99.90
35381;DHT22;21486;51.916;8.378;2023-08-24T04:31:12;16.40;99.90
35381;DHT22;21486;51.916;8.378;2023-08-24T04:33:37;16.40;99.90
35381;DHT22;21486;51.916;8.378;2023-08-24T04:36:03;16.50;99.90
35381;DHT22;21486;51.916;8.378;2023-08-24T04:38:29;16.50;99.90
35381;DHT22;21486;51.916;8.378;2023-08-24T04:40:55;16.70;99.90
35381;DHT22;21486;51.916;8.378;2023-08-24T04:43:22;16.70;99.90
35381;DHT22;21486;51.916;8.378;2023-08-24T04:45:49;16.80;99.90
35381;DHT22;21486;51.916;8.378;2023-08-24T04:48:18;16.70;99.90
35381;DHT22;21486;51.916;8.378;2023-08-24T04:50:44;16.70;99.90
35381;DHT22;21486;51.916;8.378;2023-08-24T04:53:13;16.70;99.90
35381;DHT22;21486;51.916;8.378;2023-08-24T04:55:40;16.70;99.90
35381;DHT22;21486;51.916;8.378;2023-08-24T04:58:06;16.70;99.90
35381;DHT22;21486;51.916;8.378;2023-08-24T05:00:32;16.80;99.90
35381;DHT22;21486;51.916;8.378;2023-08-24T05:02:58;16.90;99.90
35381;DHT22;21486;51.916;8.378;2023-08-24T05:05:24;16.80;99.90
35381;DHT22;21486;51.916;8.378;2023-08-24T05:07:50;16.90;99.90
35381;DHT22;21486;51.916;8.378;2023-08-24T05:10:15;16.90;99.90
35381;DHT22;21486;51.916;8.378;2023-08-24T05:12:41;16.90;99.90
35381;DHT22;21486;51.916;8.378;2023-08-24T05:15:07;16.90;99.90
35381;DHT22;21486;51.916;8.378;2023-08-24T05:17:33;16.90;99.90
35381;DHT22;21486;51.916;8.378;2023-08-24T05:19:59;16.90;99.90
35381;DHT22;21486;51.916;8.378;2023-08-24T05:22:24;16.90;99.90
35381;DHT22;21486;51.916;8.378;2023-08-24T05:24:50;16.90;99.90
35381;DHT22;21486;51.916;8.378;2023-08-24T05:27:16;16.90;99.90
35381;DHT22;21486;51.916;8.378;2023-08-24T05:29:42;16.90;99.90
35381;DHT22;21486;51.916;8.378;2023-08-24T05:32:07;16.90;99.90
35381;DHT22;21486;51.916;8.378;2023-08-24T05:34:33;16.80;99.90
35381;DHT22;21486;51.916;8.378;2023-08-24T05:36:58;16.80;99.90
35381;DHT22;21486;51.916;8.378;2023-08-24T05:39:24;16.80;99.90
35381;DHT22;21486;51.916;8.378;2023-08-24T05:41:51;16.70;99.90
35381;DHT22;21486;51.916;8.378;2023-08-24T05:44:17;16.80;99.90
35381;DHT22;21486;51.916;8.378;2023-08-24T05:46:42;16.70;99.90
35381;DHT22;21486;51.916;8.378;2023-08-24T05:49:08;16.90;99.90
35381;DHT22;21486;51.916;8.378;2023-08-24T05:51:34;16.90;99.90
35381;DHT22;21486;51.916;8.378;2023-08-24T05:54:00;16.90;99.90
35381;DHT22;21486;51.916;8.378;2023-08-24T05:56:25;16.80;99.90
35381;DHT22;21486;51.916;8.378;2023-08-24T05:58:51;16.90;99.90
35381;DHT22;21486;51.916;8.378;2023-08-24T06:01:17;16.90;99.90
35381;DHT22;21486;51.916;8.378;2023-08-24T06:03:42;16.90;99.90
35381;DHT22;21486;51.916;8.378;2023-08-24T06:06:08;17.00;99.90
35381;DHT22;21486;51.916;8.378;2023-08-24T06:08:34;17.00;99.90
35381;DHT22;21486;51.916;8.378;2023-08-24T06:11:00;17.10;99.90
35381;DHT22;21486;51.916;8.378;2023-08-24T06:13:25;17.00;99.90
35381;DHT22;21486;51.916;8.378;2023-08-24T06:15:52;17.10;99.90
35381;DHT22;21486;51.916;8.378;2023-08-24T06:18:17;17.20;99.90
35381;DHT22;21486;51.916;8.378;2023-08-24T06:20:43;17.10;99.90
35381;DHT22;21486;51.916;8.378;2023-08-24T06:23:09;17.20;99.90
35381;DHT22;21486;51.916;8.378;2023-08-24T06:25:35;17.30;99.90
35381;DHT22;21486;51.916;8.378;2023-08-24T06:28:00;17.30;99.90
35381;DHT22;21486;51.916;8.378;2023-08-24T06:30:29;17.40;99.90
35381;DHT22;21486;51.916;8.378;2023-08-24T06:32:58;17.50;99.90
35381;DHT22;21486;51.916;8.378;2023-08-24T06:35:24;17.60;99.90
35381;DHT22;21486;51.916;8.378;2023-08-24T06:37:49;17.60;99.90
35381;DHT22;21486;51.916;8.378;2023-08-24T06:40:15;17.60;99.90
35381;DHT22;21486;51.916;8.378;2023-08-24T06:42:42;17.70;99.90
35381;DHT22;21486;51.916;8.378;2023-08-24T06:45:08;17.80;99.90
35381;DHT22;21486;51.916;8.378;2023-08-24T06:47:35;17.90;99.90
35381;DHT22;21486;51.916;8.378;2023-08-24T06:50:01;18.00;99.90
35381;DHT22;21486;51.916;8.378;2023-08-24T06:52:27;18.10;99.90
35381;DHT22;21486;51.916;8.378;2023-08-24T06:54:52;18.20;99.90
35381;DHT22;21486;51.916;8.378;2023-08-24T06:57:21;18.40;99.90
35381;DHT22;21486;51.916;8.378;2023-08-24T06:59:46;18.50;99.90
35381;DHT22;21486;51.916;8.378;2023-08-24T07:02:12;18.70;99.90
35381;DHT22;21486;51.916;8.378;2023-08-24T07:04:38;18.70;99.90
35381;DHT22;21486;51.916;8.378;2023-08-24T07:07:08;18.70;99.90
35381;DHT22;21486;51.916;8.378;2023-08-24T07:09:34;18.70;99.90
35381;DHT22;21486;51.916;8.378;2023-08-24T07:12:01;18.70;99.90
35381;DHT22;21486;51.916;8.378;2023-08-24T07:14:27;18.80;99.90
35381;DHT22;21486;51.916;8.378;2023-08-24T07:16:52;18.90;99.90
35381;DHT22;21486;51.916;8.378;2023-08-24T07:19:18;19.00;99.90
35381;DHT22;21486;51.916;8.378;2023-08-24T07:21:43;19.10;99.90
35381;DHT22;21486;51.916;8.378;2023-08-24T07:24:09;19.10;99.90
35381;DHT22;21486;51.916;8.378;2023-08-24T07:26:34;19.20;99.90
35381;DHT22;21486;51.916;8.378;2023-08-24T07:29:00;19.30;99.90
35381;DHT22;21486;51.916;8.378;2023-08-24T07:31:25;19.40;99.90
35381;DHT22;21486;51.916;8.378;2023-08-24T07:33:51;19.40;99.90
35381;DHT22;21486;51.916;8.378;2023-08-24T07:36:16;19.50;99.90
35381;DHT22;21486;51.916;8.378;2023-08-24T07:38:45;19.70;99.90
35381;DHT22;21486;51.916;8.378;2023-08-24T07:41:10;19.80;99.90
35381;DHT22;21486;51.916;8.378;2023-08-24T07:43:37;20.00;99.90
35381;DHT22;21486;51.916;8.378;2023-08-24T07:46:03;20.40;99.90
35381;DHT22;21486;51.916;8.378;2023-08-24T07:48:29;20.60;99.90
35381;DHT22;21486;51.916;8.378;2023-08-24T07:50:55;21.00;99.90
35381;DHT22;21486;51.916;8.378;2023-08-24T07:53:21;21.40;99.90
35381;DHT22;21486;51.916;8.378;2023-08-24T07:55:46;21.70;99.90
35381;DHT22;21486;51.916;8.378;2023-08-24T07:58:13;22.10;99.90
35381;DHT22;21486;51.916;8.378;2023-08-24T08:00:38;22.80;99.90
35381;DHT22;21486;51.916;8.378;2023-08-24T08:03:04;23.20;99.90
35381;DHT22;21486;51.916;8.378;2023-08-24T08:05:30;23.60;99.90
35381;DHT22;21486;51.916;8.378;2023-08-24T08:07:56;24.00;99.90
35381;DHT22;21486;51.916;8.378;2023-08-24T08:10:21;24.40;99.90
35381;DHT22;21486;51.916;8.378;2023-08-24T08:12:47;25.10;99.90
35381;DHT22;21486;51.916;8.378;2023-08-24T08:15:12;25.40;99.90
35381;DHT22;21486;51.916;8.378;2023-08-24T08:17:38;25.60;99.90
35381;DHT22;21486;51.916;8.378;2023-08-24T08:20:04;25.80;99.90
35381;DHT22;21486;51.916;8.378;2023-08-24T08:22:30;26.40;99.90
35381;DHT22;21486;51.916;8.378;2023-08-24T08:25:01;27.00;98.70
35381;DHT22;21486;51.916;8.378;2023-08-24T08:27:27;27.20;97.70
35381;DHT22;21486;51.916;8.378;2023-08-24T08:29:52;27.80;96.50
35381;DHT22;21486;51.916;8.378;2023-08-24T08:32:18;28.40;93.70
35381;DHT22;21486;51.916;8.378;2023-08-24T08:34:43;28.40;92.80
35381;DHT22;21486;51.916;8.378;2023-08-24T08:37:09;27.80;92.60
35381;DHT22;21486;51.916;8.378;2023-08-24T08:39:34;28.50;93.00
35381;DHT22;21486;51.916;8.378;2023-08-24T08:42:00;29.30;91.50
35381;DHT22;21486;51.916;8.378;2023-08-24T08:44:30;29.80;90.10
35381;DHT22;21486;51.916;8.378;2023-08-24T08:46:56;29.60;88.20
35381;DHT22;21486;51.916;8.378;2023-08-24T08:49:22;29.90;86.70
35381;DHT22;21486;51.916;8.378;2023-08-24T08:51:47;30.40;83.50
35381;DHT22;21486;51.916;8.378;2023-08-24T08:54:13;30.80;80.20
35381;DHT22;21486;51.916;8.378;2023-08-24T08:56:39;30.60;77.60
35381;DHT22;21486;51.916;8.378;2023-08-24T08:59:06;30.30;79.60
35381;DHT22;21486;51.916;8.378;2023-08-24T09:01:33;30.00;78.30
35381;DHT22;21486;51.916;8.378;2023-08-24T09:03:59;29.90;80.10
35381;DHT22;21486;51.916;8.378;2023-08-24T09:06:25;30.70;76.10
35381;DHT22;21486;51.916;8.378;2023-08-24T09:08:50;30.70;74.10
35381;DHT22;21486;51.916;8.378;2023-08-24T09:11:17;29.70;76.90
35381;DHT22;21486;51.916;8.378;2023-08-24T09:13:44;29.10;76.50
35381;DHT22;21486;51.916;8.378;2023-08-24T09:16:10;29.70;77.80
35381;DHT22;21486;51.916;8.378;2023-08-24T09:18:41;30.00;77.10
35381;DHT22;21486;51.916;8.378;2023-08-24T09:21:10;30.50;75.60
35381;DHT22;21486;51.916;8.378;2023-08-24T09:23:35;31.30;73.20
35381;DHT22;21486;51.916;8.378;2023-08-24T09:26:01;31.90;67.90
35381;DHT22;21486;51.916;8.378;2023-08-24T09:28:26;31.80;67.70
35381;DHT22;21486;51.916;8.378;2023-08-24T09:30:52;32.00;66.90
35381;DHT22;21486;51.916;8.378;2023-08-24T09:33:19;32.70;65.90
35381;DHT22;21486;51.916;8.378;2023-08-24T09:35:51;33.10;63.70
35381;DHT22;21486;51.916;8.378;2023-08-24T09:38:18;32.60;60.80
35381;DHT22;21486;51.916;8.378;2023-08-24T09:40:50;32.60;60.40
35381;DHT22;21486;51.916;8.378;2023-08-24T09:43:16;33.10;60.20
35381;DHT22;21486;51.916;8.378;2023-08-24T09:45:53;33.50;61.10
35381;DHT22;21486;51.916;8.378;2023-08-24T09:48:19;34.30;61.70
35381;DHT22;21486;51.916;8.378;2023-08-24T09:50:46;34.10;57.90
35381;DHT22;21486;51.916;8.378;2023-08-24T09:53:20;33.90;57.60
35381;DHT22;21486;51.916;8.378;2023-08-24T09:55:59;33.80;57.00
35381;DHT22;21486;51.916;8.378;2023-08-24T09:58:25;33.90;58.60
35381;DHT22;21486;51.916;8.378;2023-08-24T10:00:51;34.30;56.80
35381;DHT22;21486;51.916;8.378;2023-08-24T10:03:21;33.60;57.10
35381;DHT22;21486;51.916;8.378;2023-08-24T10:05:51;34.10;57.00
35381;DHT22;21486;51.916;8.378;2023-08-24T10:08:21;34.30;57.10
35381;DHT22;21486;51.916;8.378;2023-08-24T10:10:51;34.50;56.80
35381;DHT22;21486;51.916;8.378;2023-08-24T10:13:23;34.70;55.60
35381;DHT22;21486;51.916;8.378;2023-08-24T10:15:52;34.60;55.60
35381;DHT22;21486;51.916;8.378;2023-08-24T10:18:19;34.60;56.80
35381;DHT22;21486;51.916;8.378;2023-08-24T10:20:45;34.80;55.90
35381;DHT22;21486;51.916;8.378;2023-08-24T10:23:12;35.10;54.20
35381;DHT22;21486;51.916;8.378;2023-08-24T10:25:40;34.60;56.50
35381;DHT22;21486;51.916;8.378;2023-08-24T10:28:07;34.50;55.50
35381;DHT22;21486;51.916;8.378;2023-08-24T10:30:35;34.30;55.80
35381;DHT22;21486;51.916;8.378;2023-08-24T10:33:02;33.90;55.80
35381;DHT22;21486;51.916;8.378;2023-08-24T10:35:28;34.50;55.20
35381;DHT22;21486;51.916;8.378;2023-08-24T10:37:53;34.70;54.70
35381;DHT22;21486;51.916;8.378;2023-08-24T10:40:34;33.20;57.00
35381;DHT22;21486;51.916;8.378;2023-08-24T10:43:03;33.40;55.80
35381;DHT22;21486;51.916;8.378;2023-08-24T10:48:14;33.00;56.90
35381;DHT22;21486;51.916;8.378;2023-08-24T10:50:40;33.10;56.80
35381;DHT22;21486;51.916;8.378;2023-08-24T10:53:07;32.90;57.40
35381;DHT22;21486;51.916;8.378;2023-08-24T10:55:36;32.90;58.60
35381;DHT22;21486;51.916;8.378;2023-08-24T10:58:02;33.50;57.60
35381;DHT22;21486;51.916;8.378;2023-08-24T11:00:31;34.00;56.60
35381;DHT22;21486;51.916;8.378;2023-08-24T11:02:57;33.90;56.80
35381;DHT22;21486;51.916;8.378;2023-08-24T11:05:29;34.30;56.00
35381;DHT22;21486;51.916;8.378;2023-08-24T11:07:57;34.70;54.20
35381;DHT22;21486;51.916;8.378;2023-08-24T11:10:24;34.60;54.10
35381;DHT22;21486;51.916;8.378;2023-08-24T11:15:31;33.90;54.10
35381;DHT22;21486;51.916;8.378;2023-08-24T11:20:47;33.40;55.50
35381;DHT22;21486;51.916;8.378;2023-08-24T11:23:14;33.70;53.40
35381;DHT22;21486;51.916;8.378;2023-08-24T11:25:40;33.80;53.70
35381;DHT22;21486;51.916;8.378;2023-08-24T11:28:06;33.80;54.90
35381;DHT22;21486;51.916;8.378;2023-08-24T11:30:31;33.90;53.00
35381;DHT22;21486;51.916;8.378;2023-08-24T11:32:58;34.10;53.80
35381;DHT22;21486;51.916;8.378;2023-08-24T11:35:23;33.50;53.60
35381;DHT22;21486;51.916;8.378;2023-08-24T11:37:55;34.00;52.70
35381;DHT22;21486;51.916;8.378;2023-08-24T11:40:21;34.30;53.30
35381;DHT22;21486;51.916;8.378;2023-08-24T11:42:54;33.90;54.60
35381;DHT22;21486;51.916;8.378;2023-08-24T11:45:20;33.90;55.50
35381;DHT22;21486;51.916;8.378;2023-08-24T11:47:46;34.00;54.10
35381;DHT22;21486;51.916;8.378;2023-08-24T11:50:12;32.70;56.20
35381;DHT22;21486;51.916;8.378;2023-08-24T11:52:43;32.90;55.10
35381;DHT22;21486;51.916;8.378;2023-08-24T11:55:09;32.80;56.60
35381;DHT22;21486;51.916;8.378;2023-08-24T11:57:36;32.70;55.60
35381;DHT22;21486;51.916;8.378;2023-08-24T12:00:05;33.00;57.90
35381;DHT22;21486;51.916;8.378;2023-08-24T12:02:31;33.10;56.30
35381;DHT22;21486;51.916;8.378;2023-08-24T12:04:57;31.50;56.60
35381;DHT22;21486;51.916;8.378;2023-08-24T12:07:23;31.00;57.50
35381;DHT22;21486;51.916;8.378;2023-08-24T12:09:49;31.00;58.50
35381;DHT22;21486;51.916;8.378;2023-08-24T12:12:18;30.80;58.20
35381;DHT22;21486;51.916;8.378;2023-08-24T12:14:46;31.30;59.30
35381;DHT22;21486;51.916;8.378;2023-08-24T12:17:12;31.20;57.90
35381;DHT22;21486;51.916;8.378;2023-08-24T12:19:42;31.10;58.70
35381;DHT22;21486;51.916;8.378;2023-08-24T12:22:16;30.40;59.10
35381;DHT22;21486;51.916;8.378;2023-08-24T12:24:45;30.10;60.80
35381;DHT22;21486;51.916;8.378;2023-08-24T12:27:20;30.20;60.20
35381;DHT22;21486;51.916;8.378;2023-08-24T12:29:46;30.20;62.00
35381;DHT22;21486;51.916;8.378;2023-08-24T12:32:12;30.20;61.10
35381;DHT22;21486;51.916;8.378;2023-08-24T12:34:48;30.10;61.50
35381;DHT22;21486;51.916;8.378;2023-08-24T12:37:13;30.10;61.70
35381;DHT22;21486;51.916;8.378;2023-08-24T12:39:39;29.80;62.00
35381;DHT22;21486;51.916;8.378;2023-08-24T12:42:05;29.50;63.20
35381;DHT22;21486;51.916;8.378;2023-08-24T12:44:31;29.20;63.00
35381;DHT22;21486;51.916;8.378;2023-08-24T12:46:57;29.50;64.10
35381;DHT22;21486;51.916;8.378;2023-08-24T12:49:23;29.60;63.00
35381;DHT22;21486;51.916;8.378;2023-08-24T12:51:48;29.30;63.30
35381;DHT22;21486;51.916;8.378;2023-08-24T12:54:14;29.50;63.60
35381;DHT22;21486;51.916;8.378;2023-08-24T12:56:39;29.90;63.80
35381;DHT22;21486;51.916;8.378;2023-08-24T12:59:08;30.10;63.90
35381;DHT22;21486;51.916;8.378;2023-08-24T13:01:34;29.80;63.30
35381;DHT22;21486;51.916;8.378;2023-08-24T13:03:59;29.90;65.50
35381;DHT22;21486;51.916;8.378;2023-08-24T13:06:25;30.20;65.50
35381;DHT22;21486;51.916;8.378;2023-08-24T13:08:54;30.20;63.50
35381;DHT22;21486;51.916;8.378;2023-08-24T13:11:22;29.80;64.10
35381;DHT22;21486;51.916;8.378;2023-08-24T13:13:48;29.90;64.60
35381;DHT22;21486;51.916;8.378;2023-08-24T13:16:13;30.20;64.00
35381;DHT22;21486;51.916;8.378;2023-08-24T13:18:39;30.20;64.60
35381;DHT22;21486;51.916;8.378;2023-08-24T13:21:05;30.00;64.30
35381;DHT22;21486;51.916;8.378;2023-08-24T13:23:30;29.90;64.90
35381;DHT22;21486;51.916;8.378;2023-08-24T13:25:59;29.90;64.80
35381;DHT22;21486;51.916;8.378;2023-08-24T13:28:24;29.90;67.10
35381;DHT22;21486;51.916;8.378;2023-08-24T13:30:50;30.20;65.30
35381;DHT22;21486;51.916;8.378;2023-08-24T13:33:15;30.30;65.20
35381;DHT22;21486;51.916;8.378;2023-08-24T13:35:56;30.00;64.70
35381;DHT22;21486;51.916;8.378;2023-08-24T13:38:27;29.40;64.70
35381;DHT22;21486;51.916;8.378;2023-08-24T13:40:53;29.10;66.10
35381;DHT22;21486;51.916;8.378;2023-08-24T13:43:19;29.00;65.50
35381;DHT22;21486;51.916;8.378;2023-08-24T13:45:45;29.00;67.50
35381;DHT22;21486;51.916;8.378;2023-08-24T13:48:10;29.10;66.60
35381;DHT22;21486;51.916;8.378;2023-08-24T13:50:36;29.20;66.40
35381;DHT22;21486;51.916;8.378;2023-08-24T13:53:04;29.20;63.80
35381;DHT22;21486;51.916;8.378;2023-08-24T13:55:31;29.00;64.30
35381;DHT22;21486;51.916;8.378;2023-08-24T13:58:03;29.10;64.20
35381;DHT22;21486;51.916;8.378;2023-08-24T14:00:29;29.00;66.50
35381;DHT22;21486;51.916;8.378;2023-08-24T14:02:54;29.10;67.70
35381;DHT22;21486;51.916;8.378;2023-08-24T14:05:20;28.90;64.80
35381;DHT22;21486;51.916;8.378;2023-08-24T14:07:45;28.90;66.70
35381;DHT22;21486;51.916;8.378;2023-08-24T14:10:11;28.90;63.70
35381;DHT22;21486;51.916;8.378;2023-08-24T14:12:37;28.80;64.20
35381;DHT22;21486;51.916;8.378;2023-08-24T14:15:03;28.70;64.80
35381;DHT22;21486;51.916;8.378;2023-08-24T14:17:28;28.60;66.10
35381;DHT22;21486;51.916;8.378;2023-08-24T14:19:54;28.50;65.90
35381;DHT22;21486;51.916;8.378;2023-08-24T14:22:20;28.40;66.50
35381;DHT22;21486;51.916;8.378;2023-08-24T14:24:45;28.40;67.40
35381;DHT22;21486;51.916;8.378;2023-08-24T14:27:21;28.30;69.90
35381;DHT22;21486;51.916;8.378;2023-08-24T14:32:31;28.10;68.30
35381;DHT22;21486;51.916;8.378;2023-08-24T14:34:58;28.00;68.90
35381;DHT22;21486;51.916;8.378;2023-08-24T14:37:24;28.00;71.70
35381;DHT22;21486;51.916;8.378;2023-08-24T14:42:29;27.90;71.60
35381;DHT22;21486;51.916;8.378;2023-08-24T14:44:55;27.70;74.90
35381;DHT22;21486;51.916;8.378;2023-08-24T14:47:20;27.60;77.30
35381;DHT22;21486;51.916;8.378;2023-08-24T14:49:46;27.50;81.20
35381;DHT22;21486;51.916;8.378;2023-08-24T14:52:16;27.30;77.20
35381;DHT22;21486;51.916;8.378;2023-08-24T14:55:02;27.10;79.50
35381;DHT22;21486;51.916;8.378;2023-08-24T14:57:28;26.90;80.80
35381;DHT22;21486;51.916;8.378;2023-08-24T14:59:54;26.80;83.60
35381;DHT22;21486;51.916;8.378;2023-08-24T15:02:20;26.70;83.70
35381;DHT22;21486;51.916;8.378;2023-08-24T15:04:46;26.60;89.40
35381;DHT22;21486;51.916;8.378;2023-08-24T15:07:11;26.60;91.00
35381;DHT22;21486;51.916;8.378;2023-08-24T15:09:37;26.60;91.40
35381;DHT22;21486;51.916;8.378;2023-08-24T15:14:58;26.70;93.60
35381;DHT22;21486;51.916;8.378;2023-08-24T15:17:24;26.90;94.20
35381;DHT22;21486;51.916;8.378;2023-08-24T15:19:50;27.00;94.80
35381;DHT22;21486;51.916;8.378;2023-08-24T15:22:18;27.20;96.30
35381;DHT22;21486;51.916;8.378;2023-08-24T15:24:44;27.30;95.30
35381;DHT22;21486;51.916;8.378;2023-08-24T15:27:10;27.40;94.60
35381;DHT22;21486;51.916;8.378;2023-08-24T15:29:39;27.40;94.50
35381;DHT22;21486;51.916;8.378;2023-08-24T15:32:18;27.40;95.10
35381;DHT22;21486;51.916;8.378;2023-08-24T15:34:44;27.40;95.80
35381;DHT22;21486;51.916;8.378;2023-08-24T15:37:09;27.40;95.70
35381;DHT22;21486;51.916;8.378;2023-08-24T15:39:38;27.40;97.10
35381;DHT22;21486;51.916;8.378;2023-08-24T15:42:04;27.30;98.20
35381;DHT22;21486;51.916;8.378;2023-08-24T15:44:30;27.30;97.30
35381;DHT22;21486;51.916;8.378;2023-08-24T15:47:02;27.30;97.10